createdAt,value
2023-02-24T00:02:01.701Z,43.42
2023-02-24T00:04:33.158Z,43.42
2023-02-24T00:07:02.728Z,41.78
2023-02-24T00:09:31.965Z,41.95
2023-02-24T00:12:03.186Z,40.30
2023-02-24T00:14:33.819Z,42.17
2023-02-24T00:17:02.710Z,40.78
2023-02-24T00:19:35.114Z,43.67
2023-02-24T00:22:05.056Z,40.58
2023-02-24T00:24:33.299Z,42.50
2023-02-24T00:27:07.904Z,43.05
2023-02-24T00:29:37.859Z,41.65
2023-02-24T00:32:08.365Z,42.38
2023-02-24T00:34:37.791Z,43.60
2023-02-24T00:37:09.480Z,40.95
2023-02-24T00:39:42.099Z,41.45
2023-02-24T00:42:12.242Z,42.95
2023-02-24T00:44:44.764Z,41.30
2023-02-24T00:47:13.768Z,41.25
2023-02-24T00:49:43.455Z,42.97
2023-02-24T00:52:15.724Z,42.10
2023-02-24T00:54:46.373Z,43.03
2023-02-24T00:57:17.696Z,41.35
2023-02-24T00:59:51.601Z,41.78
2023-02-24T01:02:20.628Z,40.78
2023-02-24T01:04:50.068Z,40.67
2023-02-24T01:07:18.132Z,41.60
2023-02-24T01:09:46.409Z,42.40
2023-02-24T01:12:33.066Z,40.38
2023-02-24T01:15:05.207Z,40.25
2023-02-24T01:17:37.076Z,42.17
2023-02-24T01:20:17.123Z,40.40
2023-02-24T01:22:48.273Z,41.22
2023-02-24T01:25:19.159Z,41.92
2023-02-24T01:27:47.100Z,40.75
2023-02-24T01:30:16.458Z,41.58
2023-02-24T01:32:45.097Z,42.78
2023-02-24T01:35:14.650Z,38.60
2023-02-24T01:37:43.299Z,39.13
2023-02-24T01:40:22.018Z,38.83
2023-02-24T01:42:50.905Z,39.13
2023-02-24T01:45:25.342Z,40.00
2023-02-24T01:47:57.391Z,39.35
2023-02-24T01:50:26.888Z,38.72
2023-02-24T01:53:01.208Z,38.63
2023-02-24T01:55:34.654Z,40.20
2023-02-24T01:58:09.069Z,41.38
2023-02-24T02:00:45.301Z,40.25
2023-02-24T02:03:20.697Z,40.63
2023-02-24T02:05:49.785Z,37.72
2023-02-24T02:08:19.981Z,38.85
2023-02-24T02:10:48.072Z,40.05
2023-02-24T02:13:21.611Z,39.92
2023-02-24T02:16:01.084Z,41.10
2023-02-24T02:18:34.938Z,39.95
2023-02-24T02:21:33.408Z,42.38
2023-02-24T02:24:24.383Z,38.42
2023-02-24T02:27:11.687Z,38.13
2023-02-24T02:30:17.889Z,39.30
2023-02-24T02:33:27.642Z,40.53
2023-02-24T02:36:01.707Z,39.85
2023-02-24T02:38:43.196Z,39.33
2023-02-24T02:41:36.542Z,39.83
2023-02-24T02:44:25.810Z,37.92
2023-02-24T02:46:59.823Z,38.13
2023-02-24T02:49:38.245Z,38.85
2023-02-24T02:52:15.653Z,39.58
2023-02-24T02:54:50.819Z,38.25
2023-02-24T03:00:09.858Z,38.28
2023-02-24T03:02:41.638Z,40.30
2023-02-24T03:05:12.062Z,39.45
2023-02-24T03:07:45.535Z,38.45
2023-02-24T03:10:22.552Z,40.72
2023-02-24T03:12:56.068Z,38.25
2023-02-24T03:15:27.778Z,37.78
2023-02-24T03:18:12.315Z,37.20
2023-02-24T03:20:47.180Z,39.58
2023-02-24T03:23:26.107Z,37.83
2023-02-24T03:26:01.072Z,36.85
2023-02-24T03:28:43.739Z,38.47
2023-02-24T03:31:19.292Z,39.83
2023-02-24T03:34:08.762Z,37.78
2023-02-24T03:36:37.098Z,36.92
2023-02-24T03:39:11.355Z,39.17
2023-02-24T03:42:04.447Z,37.55
2023-02-24T03:44:35.324Z,39.20
2023-02-24T03:47:03.857Z,37.30
2023-02-24T03:49:31.962Z,40.78
2023-02-24T03:52:25.572Z,38.75
2023-02-24T03:55:18.454Z,40.40
2023-02-24T03:57:55.696Z,41.47
2023-02-24T04:01:05.851Z,40.22
2023-02-24T04:03:48.001Z,37.83
2023-02-24T04:06:58.179Z,39.80
2023-02-24T04:09:51.104Z,38.05
2023-02-24T04:12:27.268Z,37.80
2023-02-24T04:15:20.349Z,39.05
2023-02-24T04:17:51.058Z,37.90
2023-02-24T04:20:23.301Z,37.97
2023-02-24T04:23:08.910Z,36.83
2023-02-24T04:25:39.497Z,37.80
2023-02-24T04:28:09.014Z,36.60
2023-02-24T04:30:44.589Z,36.45
2023-02-24T04:33:14.508Z,37.72
2023-02-24T04:35:45.562Z,37.58
2023-02-24T04:38:13.685Z,35.80
2023-02-24T04:40:42.643Z,37.42
2023-02-24T04:43:11.230Z,35.78
2023-02-24T04:45:42.041Z,35.40
2023-02-24T04:48:13.111Z,38.25
2023-02-24T04:50:43.859Z,37.28
2023-02-24T04:53:14.882Z,36.95
2023-02-24T04:55:51.311Z,37.08
2023-02-24T04:58:22.228Z,35.90
2023-02-24T05:01:01.114Z,34.20
2023-02-24T05:03:30.224Z,34.85
2023-02-24T05:06:02.651Z,34.50
2023-02-24T05:08:31.288Z,36.53
2023-02-24T05:11:04.041Z,33.38
2023-02-24T05:13:32.734Z,34.97
2023-02-24T05:16:07.628Z,33.72
2023-02-24T05:18:37.358Z,33.88
2023-02-24T05:21:27.244Z,35.55
2023-02-24T05:23:55.889Z,35.67
2023-02-24T05:26:25.872Z,33.85
2023-02-24T05:28:56.747Z,32.45
2023-02-24T05:31:27.551Z,35.83
2023-02-24T05:34:06.869Z,33.92
2023-02-24T05:36:40.427Z,34.50
2023-02-24T05:39:12.857Z,35.22
2023-02-24T05:41:43.558Z,35.47
2023-02-24T05:44:14.008Z,33.45
2023-02-24T05:46:44.765Z,34.08
2023-02-24T05:49:16.055Z,36.75
2023-02-24T05:51:54.910Z,35.97
2023-02-24T05:54:35.927Z,35.30
2023-02-24T05:57:07.318Z,37.38
2023-02-24T05:59:35.513Z,34.95
2023-02-24T06:02:07.564Z,37.35
2023-02-24T06:04:40.862Z,37.40
2023-02-24T06:07:14.756Z,35.28
2023-02-24T06:09:45.744Z,33.28
2023-02-24T06:12:18.504Z,33.67
2023-02-24T06:14:46.799Z,35.55
2023-02-24T06:17:17.208Z,34.05
2023-02-24T06:19:46.902Z,35.33
2023-02-24T06:22:16.842Z,35.13
2023-02-24T06:24:45.976Z,33.47
2023-02-24T06:27:21.794Z,33.42
2023-02-24T06:29:51.356Z,32.40
2023-02-24T06:32:22.259Z,32.50
2023-02-24T06:34:51.892Z,31.20
2023-02-24T06:37:20.207Z,32.42
2023-02-24T06:39:48.212Z,33.75
2023-02-24T06:42:16.729Z,32.65
2023-02-24T06:44:44.764Z,32.53
2023-02-24T06:47:14.370Z,32.20
2023-02-24T06:49:45.156Z,34.38
2023-02-24T06:52:18.790Z,32.33
2023-02-24T06:54:52.599Z,32.90
2023-02-24T06:57:20.880Z,31.65
2023-02-24T06:59:49.267Z,35.00
2023-02-24T07:02:17.830Z,33.10
2023-02-24T07:04:46.094Z,36.15
2023-02-24T07:07:17.674Z,32.80
2023-02-24T07:09:45.764Z,31.77
2023-02-24T07:12:13.840Z,31.80
2023-02-24T07:14:41.843Z,31.65
2023-02-24T07:17:10.513Z,30.10
2023-02-24T07:19:38.351Z,31.27
2023-02-24T07:22:06.204Z,32.70
2023-02-24T07:24:36.811Z,33.17
2023-02-24T07:27:11.939Z,30.58
2023-02-24T07:29:40.115Z,33.45
2023-02-24T07:32:10.715Z,31.60
2023-02-24T07:34:42.401Z,31.30
2023-02-24T07:37:10.921Z,30.40
2023-02-24T07:39:40.062Z,29.27
2023-02-24T07:42:10.284Z,32.33
2023-02-24T07:44:46.875Z,32.40
2023-02-24T07:47:16.248Z,33.33
2023-02-24T07:49:45.699Z,35.15
2023-02-24T07:52:13.826Z,35.88
2023-02-24T07:54:41.772Z,33.72
2023-02-24T07:57:14.266Z,34.25
2023-02-24T07:59:45.244Z,34.70
2023-02-24T08:02:13.993Z,31.75
2023-02-24T08:04:47.610Z,33.05
2023-02-24T08:07:16.073Z,34.15
2023-02-24T08:09:46.956Z,30.08
2023-02-24T08:12:22.724Z,32.85
2023-02-24T08:14:53.738Z,34.35
2023-02-24T08:17:26.674Z,34.53
2023-02-24T08:20:14.321Z,32.42
2023-02-24T08:22:52.369Z,32.08
2023-02-24T08:25:38.401Z,33.40
2023-02-24T08:28:11.793Z,30.33
2023-02-24T08:30:48.579Z,34.63
2023-02-24T08:33:22.273Z,32.63
2023-02-24T08:36:01.594Z,31.85
2023-02-24T08:38:44.725Z,31.35
2023-02-24T08:41:20.266Z,32.72
2023-02-24T08:43:49.410Z,33.00
2023-02-24T08:46:21.528Z,33.28
2023-02-24T08:48:55.863Z,32.67
2023-02-24T08:51:30.863Z,32.45
2023-02-24T08:54:01.539Z,33.63
2023-02-24T08:56:34.632Z,34.20
2023-02-24T08:59:05.935Z,34.33
2023-02-24T09:01:40.091Z,32.20
2023-02-24T09:06:37.134Z,32.85
2023-02-24T09:09:37.655Z,34.25
2023-02-24T09:12:06.076Z,33.13
2023-02-24T09:14:37.570Z,33.15
2023-02-24T09:17:13.654Z,33.60
2023-02-24T09:19:47.285Z,34.22
2023-02-24T09:22:32.996Z,37.03
2023-02-24T09:25:40.878Z,36.13
2023-02-24T09:28:18.815Z,35.83
2023-02-24T09:30:56.005Z,36.47
2023-02-24T09:33:27.752Z,37.30
2023-02-24T09:36:10.656Z,37.35
2023-02-24T09:39:02.082Z,37.92
2023-02-24T09:41:45.427Z,41.75
2023-02-24T09:44:19.924Z,41.25
2023-02-24T09:46:55.076Z,40.85
2023-02-24T09:49:40.219Z,39.00
2023-02-24T09:52:19.142Z,39.55
2023-02-24T09:55:16.266Z,38.72
2023-02-24T09:58:10.147Z,40.28
2023-02-24T10:00:44.409Z,40.67
2023-02-24T10:03:42.725Z,41.58
2023-02-24T10:06:20.974Z,41.80
2023-02-24T10:09:11.853Z,41.17
2023-02-24T10:11:53.755Z,38.33
2023-02-24T10:14:51.126Z,38.47
2023-02-24T10:17:30.826Z,34.53
2023-02-24T10:20:14.135Z,33.17
2023-02-24T10:22:55.030Z,34.35
2023-02-24T10:25:38.921Z,33.70
2023-02-24T10:28:20.296Z,33.85
2023-02-24T10:31:04.109Z,35.05
2023-02-24T10:33:39.400Z,35.60
2023-02-24T10:36:10.801Z,36.53
2023-02-24T10:38:41.226Z,34.42
2023-02-24T10:41:10.574Z,33.35
2023-02-24T10:43:47.896Z,34.42
2023-02-24T10:46:38.561Z,32.65
2023-02-24T10:49:16.978Z,34.47
2023-02-24T10:51:52.360Z,37.13
2023-02-24T10:54:34.707Z,37.05
2023-02-24T10:57:18.863Z,37.22
2023-02-24T11:00:16.414Z,36.40
2023-02-24T11:03:07.228Z,35.03
2023-02-24T11:05:56.590Z,31.65
2023-02-24T11:08:42.971Z,30.10
2023-02-24T11:11:29.855Z,31.15
2023-02-24T11:14:20.108Z,30.40
2023-02-24T11:17:11.792Z,31.50
2023-02-24T11:19:55.655Z,31.88
2023-02-24T11:22:28.122Z,32.35
2023-02-24T11:24:56.369Z,32.80
2023-02-24T11:27:26.565Z,30.00
2023-02-24T11:30:16.773Z,31.48
2023-02-24T11:33:29.099Z,29.75
2023-02-24T11:36:14.623Z,29.88
2023-02-24T11:38:53.873Z,31.40
2023-02-24T11:41:33.911Z,31.58
2023-02-24T11:44:23.876Z,30.25
2023-02-24T11:47:00.849Z,30.83
2023-02-24T11:49:39.740Z,30.55
2023-02-24T11:52:14.382Z,32.22
2023-02-24T11:54:50.738Z,34.55
2023-02-24T11:57:23.975Z,31.40
2023-02-24T12:00:14.912Z,29.75
2023-02-24T12:03:02.215Z,29.45
2023-02-24T12:05:39.267Z,30.77
2023-02-24T12:08:35.169Z,30.95
2023-02-24T12:11:23.093Z,32.97
2023-02-24T12:14:14.380Z,32.33
2023-02-24T12:16:48.172Z,29.40
2023-02-24T12:19:23.832Z,30.05
2023-02-24T12:21:59.246Z,31.90
2023-02-24T12:24:27.234Z,30.50
2023-02-24T12:27:14.396Z,32.60
2023-02-24T12:30:34.460Z,29.73
2023-02-24T12:33:05.472Z,29.50
2023-02-24T12:36:12.569Z,30.60
2023-02-24T12:39:16.227Z,30.90
2023-02-24T12:42:13.718Z,29.60
2023-02-24T12:45:16.100Z,29.55
2023-02-24T12:47:57.961Z,28.92
2023-02-24T12:50:51.278Z,29.98
2023-02-24T12:53:52.218Z,29.92
2023-02-24T12:56:31.378Z,29.25
2023-02-24T12:59:05.632Z,28.30
2023-02-24T13:01:52.127Z,28.15
2023-02-24T13:04:53.855Z,26.92
2023-02-24T13:07:39.951Z,27.90
2023-02-24T13:10:42.557Z,26.33
2023-02-24T13:13:19.978Z,27.92
2023-02-24T13:16:00.265Z,26.23
2023-02-24T13:18:33.582Z,26.17
2023-02-24T13:21:07.706Z,26.38
2023-02-24T13:26:05.074Z,28.05
2023-02-24T13:28:39.809Z,26.15
2023-02-24T13:31:12.788Z,27.00
2023-02-24T13:33:44.314Z,24.58
2023-02-24T13:36:21.750Z,26.33
2023-02-24T13:38:52.847Z,25.42
2023-02-24T13:41:38.846Z,27.05
2023-02-24T13:44:19.989Z,26.08
2023-02-24T13:47:06.943Z,25.30
2023-02-24T13:50:12.682Z,24.95
2023-02-24T13:53:27.749Z,24.33
2023-02-24T13:56:36.096Z,24.85
2023-02-24T13:59:25.953Z,23.98
2023-02-24T14:02:08.518Z,22.80
2023-02-24T14:04:48.413Z,22.95
2023-02-24T14:07:26.743Z,23.30
2023-02-24T14:10:20.823Z,20.92
2023-02-24T14:12:51.859Z,22.58
2023-02-24T14:15:24.685Z,21.38
2023-02-24T14:18:06.304Z,21.42
2023-02-24T14:20:38.085Z,23.15
2023-02-24T14:23:23.378Z,22.33
2023-02-24T14:25:58.821Z,22.55
2023-02-24T14:28:35.186Z,21.92
2023-02-24T14:31:13.618Z,23.77
2023-02-24T14:33:43.810Z,22.15
2023-02-24T14:36:24.080Z,22.73
2023-02-24T14:39:17.101Z,21.58
2023-02-24T14:41:46.592Z,22.05
2023-02-24T14:44:27.699Z,20.65
2023-02-24T14:46:59.982Z,21.52
2023-02-24T14:49:31.655Z,22.08
2023-02-24T14:52:16.650Z,21.27
2023-02-24T14:54:47.845Z,21.27
2023-02-24T14:57:22.897Z,21.08
2023-02-24T15:00:12.512Z,21.02
2023-02-24T15:02:51.738Z,22.02
2023-02-24T15:05:19.948Z,21.30
2023-02-24T15:07:48.775Z,21.65
2023-02-24T15:10:22.006Z,21.88
2023-02-24T15:13:01.191Z,23.25
2023-02-24T15:15:35.129Z,22.17
2023-02-24T15:18:10.892Z,20.70
2023-02-24T15:20:41.242Z,22.15
2023-02-24T15:23:31.126Z,21.50
2023-02-24T15:26:01.669Z,21.58
2023-02-24T15:28:36.857Z,20.60
2023-02-24T15:31:11.481Z,21.10
2023-02-24T15:33:44.153Z,22.50
2023-02-24T15:36:24.678Z,21.23
2023-02-24T15:38:57.065Z,21.23
2023-02-24T15:41:25.544Z,21.17
2023-02-24T15:43:56.717Z,21.35
2023-02-24T15:46:36.131Z,21.58
2023-02-24T15:49:06.166Z,23.95
2023-02-24T15:51:41.584Z,22.42
2023-02-24T15:54:16.867Z,22.75
2023-02-24T15:56:51.552Z,20.50
2023-02-24T15:59:24.017Z,23.23
2023-02-24T16:01:53.465Z,21.88
2023-02-24T16:04:23.598Z,20.98
2023-02-24T16:06:54.921Z,21.70
2023-02-24T16:09:34.060Z,20.80
2023-02-24T16:12:08.937Z,23.92
2023-02-24T16:14:38.434Z,25.17
2023-02-24T16:17:15.042Z,23.15
2023-02-24T16:19:44.437Z,27.27
2023-02-24T16:22:13.162Z,27.52
2023-02-24T16:24:44.289Z,24.95
2023-02-24T16:27:22.049Z,27.17
2023-02-24T16:29:51.607Z,26.30
2023-02-24T16:32:23.875Z,26.50
2023-02-24T16:34:52.970Z,25.58
2023-02-24T16:37:22.487Z,23.98
2023-02-24T16:39:51.675Z,26.70
2023-02-24T16:42:21.848Z,23.13
2023-02-24T16:44:50.907Z,22.83
2023-02-24T16:47:24.440Z,25.02
2023-02-24T16:49:55.545Z,22.45
2023-02-24T16:52:25.099Z,21.80
2023-02-24T16:54:53.290Z,22.33
2023-02-24T16:57:25.785Z,21.60
2023-02-24T16:59:53.917Z,23.13
2023-02-24T17:02:26.284Z,22.55
2023-02-24T17:04:54.369Z,22.73
2023-02-24T17:07:22.463Z,22.70
2023-02-24T17:09:50.648Z,22.38
2023-02-24T17:12:22.183Z,23.70
2023-02-24T17:14:50.236Z,22.10
2023-02-24T17:17:19.577Z,22.08
2023-02-24T17:19:47.498Z,22.02
2023-02-24T17:22:15.312Z,22.42
2023-02-24T17:24:43.230Z,23.48
2023-02-24T17:27:14.312Z,23.58
2023-02-24T17:29:42.151Z,22.63
2023-02-24T17:32:10.159Z,23.98
2023-02-24T17:34:38.222Z,23.60
2023-02-24T17:37:06.174Z,25.73
2023-02-24T17:39:33.975Z,23.27
2023-02-24T17:42:02.586Z,21.80
2023-02-24T17:44:30.905Z,23.40
2023-02-24T17:46:58.816Z,23.55
2023-02-24T17:49:26.996Z,23.00
2023-02-24T17:51:55.023Z,24.48
2023-02-24T17:54:22.990Z,24.10
2023-02-24T17:56:50.956Z,22.90
2023-02-24T17:59:19.014Z,23.27
2023-02-24T18:01:46.984Z,25.20
2023-02-24T18:04:14.983Z,23.00
2023-02-24T18:06:44.464Z,24.13
2023-02-24T18:09:12.343Z,25.20
2023-02-24T18:11:40.367Z,24.40
2023-02-24T18:14:08.257Z,24.38
2023-02-24T18:16:36.329Z,24.55
2023-02-24T18:19:05.911Z,25.63
2023-02-24T18:21:33.925Z,23.85
2023-02-24T18:24:02.014Z,24.83
2023-02-24T18:26:32.372Z,25.35
2023-02-24T18:29:00.684Z,24.45
2023-02-24T18:31:29.666Z,25.75
2023-02-24T18:33:57.822Z,26.08
2023-02-24T18:36:27.061Z,25.65
2023-02-24T18:38:57.827Z,24.40
2023-02-24T18:41:26.850Z,26.70
2023-02-24T18:43:57.157Z,26.38
2023-02-24T18:46:26.799Z,25.40
2023-02-24T18:48:56.441Z,27.35
2023-02-24T18:51:26.792Z,28.40
2023-02-24T18:53:55.065Z,27.30
2023-02-24T18:56:25.600Z,27.98
2023-02-24T18:58:59.006Z,27.10
2023-02-24T19:01:33.076Z,27.87
2023-02-24T19:04:02.358Z,26.33
2023-02-24T19:06:32.373Z,26.48
2023-02-24T19:09:09.919Z,27.20
2023-02-24T19:11:40.094Z,27.95
2023-02-24T19:14:11.994Z,28.83
2023-02-24T19:16:40.932Z,28.20
2023-02-24T19:19:14.127Z,29.95
2023-02-24T19:21:45.615Z,30.40
2023-02-24T19:24:14.196Z,29.80
2023-02-24T19:26:44.124Z,30.17
2023-02-24T19:29:12.299Z,29.10
2023-02-24T19:31:40.724Z,27.30
2023-02-24T19:34:12.187Z,29.55
2023-02-24T19:36:41.706Z,29.00
2023-02-24T19:39:14.305Z,27.65
2023-02-24T19:41:43.162Z,27.08
2023-02-24T19:44:11.296Z,30.25
2023-02-24T19:46:41.252Z,28.30
2023-02-24T19:49:10.169Z,30.77
2023-02-24T19:51:39.346Z,28.85
2023-02-24T19:54:12.478Z,27.65
2023-02-24T19:56:41.526Z,28.75
2023-02-24T19:59:11.598Z,26.98
2023-02-24T20:01:39.614Z,29.48
2023-02-24T20:04:08.918Z,27.25
2023-02-24T20:06:53.644Z,28.23
2023-02-24T20:09:23.192Z,29.27
2023-02-24T20:11:52.138Z,27.00
2023-02-24T20:14:21.756Z,27.05
2023-02-24T20:16:50.826Z,27.83
2023-02-24T20:19:19.724Z,27.25
2023-02-24T20:21:48.082Z,27.73
2023-02-24T20:24:17.748Z,28.67
2023-02-24T20:26:49.684Z,25.40
2023-02-24T20:29:19.643Z,30.33
2023-02-24T20:31:48.453Z,30.08
2023-02-24T20:34:17.660Z,28.92
2023-02-24T20:36:46.755Z,29.20
2023-02-24T20:39:15.104Z,28.80
2023-02-24T20:41:43.897Z,26.85
2023-02-24T20:44:11.963Z,27.50
2023-02-24T20:46:40.065Z,28.73
2023-02-24T20:49:11.746Z,28.85
2023-02-24T20:51:39.755Z,28.95
2023-02-24T20:54:09.040Z,28.20
2023-02-24T20:56:39.395Z,28.02
2023-02-24T20:59:12.314Z,28.58
2023-02-24T21:01:40.830Z,28.50
2023-02-24T21:04:09.089Z,31.42
2023-02-24T21:06:37.348Z,31.27
2023-02-24T21:09:05.554Z,30.10
2023-02-24T21:11:34.635Z,29.98
2023-02-24T21:14:02.972Z,29.38
2023-02-24T21:16:31.033Z,30.50
2023-02-24T21:18:59.065Z,29.58
2023-02-24T21:21:28.083Z,28.83
2023-02-24T21:23:56.854Z,29.50
2023-02-24T21:26:27.231Z,29.25
2023-02-24T21:28:58.035Z,29.58
2023-02-24T21:31:27.161Z,29.00
2023-02-24T21:33:55.809Z,31.17
2023-02-24T21:36:26.180Z,30.35
2023-02-24T21:38:55.060Z,29.13
2023-02-24T21:41:23.973Z,29.80
2023-02-24T21:43:55.194Z,31.15
2023-02-24T21:46:28.463Z,29.20
2023-02-24T21:48:58.690Z,31.20
2023-02-24T21:51:28.358Z,28.80
2023-02-24T21:53:57.414Z,30.88
2023-02-24T21:56:30.249Z,26.73
2023-02-24T21:59:00.639Z,29.98
2023-02-24T22:01:32.118Z,31.05
2023-02-24T22:04:04.027Z,31.35
2023-02-24T22:06:34.539Z,31.88
2023-02-24T22:09:04.424Z,30.65
2023-02-24T22:11:35.347Z,29.13
2023-02-24T22:14:04.099Z,29.85
2023-02-24T22:16:31.950Z,30.45
2023-02-24T22:18:59.922Z,28.83
2023-02-24T22:21:29.613Z,32.40
2023-02-24T22:24:00.116Z,30.17
2023-02-24T22:26:30.438Z,31.33
2023-02-24T22:28:59.395Z,29.90
2023-02-24T22:31:30.508Z,30.52
2023-02-24T22:33:58.913Z,29.88
2023-02-24T22:36:33.606Z,31.80
2023-02-24T22:39:02.171Z,30.10
2023-02-24T22:41:35.193Z,30.52
2023-02-24T22:44:05.660Z,29.00
2023-02-24T22:46:36.896Z,30.13
2023-02-24T22:49:05.701Z,30.77
2023-02-24T22:51:33.954Z,30.90
2023-02-24T22:54:01.921Z,29.17
2023-02-24T22:56:31.099Z,29.55
2023-02-24T22:59:00.745Z,31.33
2023-02-24T23:01:31.282Z,31.30
2023-02-24T23:04:00.986Z,29.67
2023-02-24T23:06:30.240Z,30.85
2023-02-24T23:09:00.207Z,30.08
2023-02-24T23:11:29.978Z,30.48
2023-02-24T23:14:00.766Z,31.52
2023-02-24T23:16:31.898Z,29.88
2023-02-24T23:19:02.126Z,30.63
2023-02-24T23:21:38.046Z,30.50
2023-02-24T23:24:07.530Z,29.55
2023-02-24T23:26:40.660Z,29.40
2023-02-24T23:29:10.537Z,30.17
2023-02-24T23:31:40.854Z,31.25
2023-02-24T23:34:10.061Z,28.98
2023-02-24T23:36:40.946Z,31.95
2023-02-24T23:39:09.409Z,31.08
2023-02-24T23:41:38.151Z,30.50
2023-02-24T23:44:06.386Z,28.90
2023-02-24T23:46:35.853Z,29.35
2023-02-24T23:49:05.341Z,31.63
2023-02-24T23:51:47.741Z,31.20
2023-02-24T23:54:20.499Z,32.63
2023-02-24T23:56:48.528Z,31.58
2023-02-24T23:59:16.504Z,31.85
